Time;durP1;ratioP1;P1;durP2;ratioP2;P2;SDS_P1;SDS_P2;PMS_P1;PMS_P2;Temp;Humidity;BMP_temperature;BMP_pressure;BME280_temperature;BME280_humidity;BME280_pressure;Samples;Min_cycle;Max_cycle;Signal;HPM_P1;HPM_P2
2021/03/23 00:01:31;;;;;;;13.52;7.32;;;3.30;68.60;;;;;;5050922;28;20438;-72
2021/03/23 00:03:57;;;;;;;11.63;6.82;;;3.30;68.70;;;;;;5055966;28;20025;-73
2021/03/23 00:06:25;;;;;;;13.32;6.78;;;3.30;68.60;;;;;;5053947;28;20033;-72
2021/03/23 00:08:57;;;;;;;11.48;6.70;;;3.30;68.60;;;;;;5042728;28;20072;-73
2021/03/23 00:11:28;;;;;;;10.57;6.40;;;3.30;68.60;;;;;;5050829;28;20025;-72
2021/03/23 00:13:56;;;;;;;11.60;6.35;;;3.20;68.40;;;;;;5045347;28;20059;-74
2021/03/23 00:16:27;;;;;;;11.20;5.78;;;3.20;68.40;;;;;;5058653;28;20025;-73
2021/03/23 00:18:53;;;;;;;10.57;5.70;;;3.20;68.30;;;;;;5057664;28;20471;-73
2021/03/23 00:21:19;;;;;;;9.38;5.35;;;3.10;68.10;;;;;;5058243;28;20033;-72
2021/03/23 00:23:45;;;;;;;8.65;5.47;;;3.00;67.90;;;;;;5054865;28;20032;-72
2021/03/23 00:26:13;;;;;;;10.05;5.13;;;3.00;68.10;;;;;;5057236;28;20025;-73
2021/03/23 00:28:39;;;;;;;9.88;5.20;;;3.00;68.10;;;;;;5054951;28;20025;-72
2021/03/23 00:31:05;;;;;;;10.00;5.18;;;2.90;68.00;;;;;;5041958;28;20403;-71
2021/03/23 00:33:31;;;;;;;9.20;5.25;;;3.00;68.10;;;;;;5049758;28;20029;-73
2021/03/23 00:36:00;;;;;;;9.13;4.53;;;2.90;68.00;;;;;;5055218;28;20364;-73
2021/03/23 00:38:28;;;;;;;7.57;4.55;;;2.90;67.90;;;;;;5054484;28;20063;-73
2021/03/23 00:40:54;;;;;;;9.65;4.50;;;2.90;67.80;;;;;;5048188;28;20032;-71
2021/03/23 00:43:20;;;;;;;9.00;5.15;;;2.90;67.70;;;;;;5055691;28;20033;-73
2021/03/23 00:45:46;;;;;;;7.82;4.68;;;2.90;67.60;;;;;;5050974;28;20151;-73
2021/03/23 00:48:14;;;;;;;7.53;4.68;;;3.00;67.60;;;;;;5055525;28;20524;-72
2021/03/23 00:50:41;;;;;;;8.82;4.00;;;3.00;67.50;;;;;;5054624;28;20032;-72
2021/03/23 00:53:07;;;;;;;6.72;4.00;;;2.90;67.40;;;;;;5055009;28;20032;-73
2021/03/23 00:55:33;;;;;;;8.70;4.35;;;3.00;67.30;;;;;;5047371;28;20067;-73
2021/03/23 00:57:59;;;;;;;8.02;4.40;;;2.90;67.30;;;;;;5055046;28;20053;-73
2021/03/23 01:00:25;;;;;;;9.52;4.30;;;2.90;67.80;;;;;;5050477;28;20021;-73
2021/03/23 01:02:51;;;;;;;7.63;4.10;;;2.90;67.20;;;;;;5034522;28;20033;-72
2021/03/23 01:05:21;;;;;;;7.00;3.72;;;2.90;67.00;;;;;;5054276;28;20108;-73
2021/03/23 01:07:47;;;;;;;8.38;4.50;;;2.90;66.90;;;;;;5054170;28;20456;-69
2021/03/23 01:10:16;;;;;;;8.60;3.70;;;2.80;66.70;;;;;;5053647;28;20107;-72
2021/03/23 01:12:42;;;;;;;11.63;4.30;;;2.80;66.60;;;;;;5043886;28;20503;-72
2021/03/23 01:15:12;;;;;;;9.30;3.65;;;2.80;66.60;;;;;;5049592;28;20033;-73
2021/03/23 01:17:38;;;;;;;7.53;3.70;;;2.80;66.50;;;;;;5054896;28;20529;-73
2021/03/23 01:20:05;;;;;;;8.18;4.38;;;2.70;66.40;;;;;;5054807;28;20033;-73
2021/03/23 01:22:31;;;;;;;7.32;3.95;;;2.70;66.30;;;;;;5048808;28;20380;-73
2021/03/23 01:24:56;;;;;;;7.72;4.28;;;2.60;66.40;;;;;;5046595;28;20051;-73
2021/03/23 01:27:22;;;;;;;6.38;3.95;;;2.60;66.60;;;;;;5053259;28;20027;-72
2021/03/23 01:29:48;;;;;;;6.10;3.92;;;2.60;66.70;;;;;;5055116;28;20103;-73
2021/03/23 01:32:13;;;;;;;8.73;4.38;;;2.60;66.70;;;;;;5048899;28;20412;-73
2021/03/23 01:34:39;;;;;;;7.60;4.20;;;2.60;66.90;;;;;;5053246;28;20040;-73
2021/03/23 01:37:05;;;;;;;8.40;4.70;;;2.50;67.00;;;;;;5054084;28;20029;-72
2021/03/23 01:39:31;;;;;;;7.80;4.15;;;2.50;67.10;;;;;;5053266;28;20035;-73
2021/03/23 01:41:56;;;;;;;6.45;3.75;;;2.50;67.30;;;;;;5053297;28;20029;-73
2021/03/23 01:44:22;;;;;;;7.88;4.20;;;2.50;67.50;;;;;;5053031;28;20029;-73
2021/03/23 01:46:49;;;;;;;9.82;4.25;;;2.50;67.60;;;;;;5048325;28;20025;-72
2021/03/23 01:49:22;;;;;;;7.53;4.70;;;2.50;67.70;;;;;;5051981;28;20128;-72
2021/03/23 01:51:54;;;;;;;8.30;4.93;;;2.50;67.80;;;;;;5039416;28;20056;-73
2021/03/23 01:54:29;;;;;;;9.80;4.65;;;2.50;68.00;;;;;;5054234;28;20033;-73
2021/03/23 01:57:00;;;;;;;9.25;4.25;;;2.40;68.20;;;;;;5047109;28;20471;-72
2021/03/23 01:59:30;;;;;;;6.40;4.50;;;2.40;68.40;;;;;;5053459;28;20776;-73
2021/03/23 02:01:59;;;;;;;11.43;4.50;;;2.40;68.60;;;;;;5055218;28;20083;-72
2021/03/23 02:04:25;;;;;;;7.00;3.90;;;2.40;68.80;;;;;;5055933;28;20036;-72
2021/03/23 02:06:50;;;;;;;11.90;4.40;;;2.40;68.90;;;;;;5054897;28;20353;-72
2021/03/23 02:09:28;;;;;;;7.65;4.35;;;2.40;69.00;;;;;;5054975;28;20024;-72
2021/03/23 02:12:01;;;;;;;6.38;3.92;;;2.40;69.10;;;;;;5053174;28;20029;-72
2021/03/23 02:14:31;;;;;;;6.50;4.10;;;2.40;69.10;;;;;;5045220;28;20047;-73
2021/03/23 02:17:37;;;;;;;6.82;4.03;;;2.40;69.30;;;;;;5054194;28;20067;-72
2021/03/23 02:20:18;;;;;;;6.55;4.10;;;2.40;69.40;;;;;;5034645;28;20033;-72
2021/03/23 02:22:46;;;;;;;10.32;4.13;;;2.40;69.40;;;;;;5040909;28;20040;-72
2021/03/23 02:25:25;;;;;;;6.63;3.58;;;2.40;69.40;;;;;;5050926;28;20025;-73
2021/03/23 02:27:52;;;;;;;7.22;3.47;;;2.40;69.40;;;;;;5046201;28;20124;-72
2021/03/23 02:30:28;;;;;;;7.32;3.90;;;2.40;69.40;;;;;;5051948;28;20025;-72
2021/03/23 02:32:54;;;;;;;7.57;3.92;;;2.40;69.40;;;;;;5046012;28;20029;-70
2021/03/23 02:35:20;;;;;;;7.32;3.97;;;2.40;69.60;;;;;;5047934;28;20086;-72
2021/03/23 02:37:45;;;;;;;9.30;4.57;;;2.40;69.40;;;;;;5051807;28;20021;-72
2021/03/23 02:40:11;;;;;;;6.78;4.03;;;2.40;69.40;;;;;;5052323;28;20078;-72
2021/03/23 02:42:37;;;;;;;7.35;3.83;;;2.40;69.50;;;;;;5053057;28;20032;-73
2021/03/23 02:45:04;;;;;;;7.95;3.70;;;2.40;69.40;;;;;;5046709;28;20029;-73
2021/03/23 02:47:29;;;;;;;7.47;3.60;;;2.50;69.50;;;;;;5037976;28;20608;-72
2021/03/23 02:49:55;;;;;;;7.43;3.72;;;2.50;69.40;;;;;;5052254;28;20029;-73
2021/03/23 02:52:21;;;;;;;7.22;4.03;;;2.50;69.20;;;;;;5049091;28;20027;-72
2021/03/23 02:54:46;;;;;;;7.55;4.30;;;2.40;69.20;;;;;;5053477;28;20130;-72
2021/03/23 02:57:12;;;;;;;5.97;3.50;;;2.40;69.20;;;;;;5050638;28;20098;-73
2021/03/23 02:59:38;;;;;;;10.23;3.53;;;2.40;69.20;;;;;;5053508;28;20021;-72
2021/03/23 03:02:04;;;;;;;9.43;3.80;;;2.40;69.10;;;;;;5052045;28;20021;-73
2021/03/23 03:04:32;;;;;;;6.97;3.42;;;2.40;69.10;;;;;;5053105;28;20040;-73
2021/03/23 03:06:57;;;;;;;7.75;3.80;;;2.40;69.20;;;;;;5052381;28;20551;-71
2021/03/23 03:09:23;;;;;;;6.60;3.50;;;2.30;69.00;;;;;;5051920;28;20056;-72
2021/03/23 03:11:50;;;;;;;10.07;3.45;;;2.30;69.00;;;;;;5051496;28;20041;-72
2021/03/23 03:14:17;;;;;;;9.07;3.45;;;2.30;68.90;;;;;;5051623;28;20029;-72
2021/03/23 03:16:43;;;;;;;7.53;3.30;;;2.30;68.80;;;;;;5034123;28;20037;-73
2021/03/23 03:19:08;;;;;;;6.05;3.00;;;2.20;68.60;;;;;;5032535;28;20030;-72
2021/03/23 03:21:34;;;;;;;6.68;3.40;;;2.20;68.60;;;;;;5044348;28;20086;-73
2021/03/23 03:24:00;;;;;;;8.43;3.70;;;2.20;68.50;;;;;;5053078;28;20044;-73
2021/03/23 03:26:25;;;;;;;6.03;3.47;;;2.10;68.50;;;;;;5051725;28;20025;-73
2021/03/23 03:28:52;;;;;;;9.70;4.15;;;2.10;68.50;;;;;;5047438;28;20049;-72
2021/03/23 03:31:23;;;;;;;7.07;4.35;;;2.00;68.50;;;;;;5044020;28;20044;-72
2021/03/23 03:33:50;;;;;;;5.75;3.65;;;2.00;68.50;;;;;;5046506;28;20455;-72
2021/03/23 03:36:17;;;;;;;7.57;3.20;;;1.90;68.50;;;;;;5046690;28;20502;-74
2021/03/23 03:38:43;;;;;;;6.82;3.40;;;1.90;68.40;;;;;;5045599;28;20367;-72
2021/03/23 03:41:09;;;;;;;6.50;3.70;;;1.90;69.00;;;;;;5052164;28;20167;-72
2021/03/23 03:43:35;;;;;;;6.75;3.40;;;1.90;68.40;;;;;;5056830;28;20091;-72
2021/03/23 03:46:01;;;;;;;7.47;3.72;;;1.80;68.40;;;;;;5043223;28;20029;-72
2021/03/23 03:48:27;;;;;;;8.52;3.88;;;1.80;68.40;;;;;;5053758;28;20025;-72
2021/03/23 03:50:56;;;;;;;8.43;4.57;;;1.80;68.50;;;;;;5043439;28;20028;-72
2021/03/23 03:53:22;;;;;;;5.85;3.28;;;1.80;68.50;;;;;;5039454;28;20064;-72
2021/03/23 03:55:49;;;;;;;7.97;3.42;;;1.90;68.60;;;;;;5044497;28;20040;-72
2021/03/23 03:58:15;;;;;;;5.85;3.10;;;1.80;68.40;;;;;;5040195;28;20026;-71
2021/03/23 04:00:44;;;;;;;5.72;2.80;;;1.90;68.50;;;;;;5047851;28;20029;-72
2021/03/23 04:03:23;;;;;;;5.93;2.90;;;1.90;68.40;;;;;;5054748;28;20033;-73
2021/03/23 04:05:50;;;;;;;5.97;3.22;;;1.90;68.50;;;;;;5057457;28;20471;-73
2021/03/23 04:08:20;;;;;;;5.90;3.17;;;1.90;68.50;;;;;;5056838;28;20049;-72
2021/03/23 04:10:48;;;;;;;5.53;3.20;;;1.90;68.30;;;;;;5048924;28;20028;-73
2021/03/23 04:13:14;;;;;;;5.07;3.10;;;1.90;68.30;;;;;;5054627;28;20036;-72
2021/03/23 04:15:42;;;;;;;9.30;3.50;;;1.90;68.30;;;;;;5047524;28;20049;-73
2021/03/23 04:18:10;;;;;;;9.18;3.30;;;2.00;68.40;;;;;;5053756;28;20025;-72
2021/03/23 04:20:37;;;;;;;7.93;3.85;;;2.00;68.30;;;;;;5046852;28;20063;-72
2021/03/23 04:23:04;;;;;;;5.65;3.55;;;2.00;68.30;;;;;;5051462;28;20033;-72
2021/03/23 04:25:31;;;;;;;8.75;4.10;;;2.10;68.20;;;;;;5053932;28;20025;-73
2021/03/23 04:27:58;;;;;;;8.82;3.65;;;2.20;67.70;;;;;;5054706;28;20029;-73
2021/03/23 04:30:25;;;;;;;7.30;3.55;;;2.20;67.40;;;;;;5056551;28;20411;-73
2021/03/23 04:32:54;;;;;;;7.00;3.50;;;2.10;67.30;;;;;;5048305;28;20029;-73
2021/03/23 04:35:43;;;;;;;6.32;2.88;;;2.30;68.10;;;;;;5054667;28;20032;-73
2021/03/23 04:38:12;;;;;;;14.20;3.47;;;2.80;69.10;;;;;;5051100;28;20028;-72
2021/03/23 04:40:38;;;;;;;6.05;3.20;;;3.40;70.10;;;;;;5053076;28;20017;-72
2021/03/23 04:43:05;;;;;;;6.72;2.95;;;4.00;69.60;;;;;;5052166;28;20031;-72
2021/03/23 04:45:31;;;;;;;7.45;2.95;;;4.60;68.10;;;;;;5051545;28;20079;-72
2021/03/23 04:47:57;;;;;;;6.88;2.97;;;5.10;66.20;;;;;;5054444;28;20057;-73
2021/03/23 04:50:23;;;;;;;8.52;2.90;;;5.60;65.30;;;;;;5054698;28;20029;-73
2021/03/23 04:52:49;;;;;;;6.93;3.03;;;6.10;64.20;;;;;;5040831;28;20056;-73
2021/03/23 04:55:16;;;;;;;6.50;3.03;;;6.40;62.70;;;;;;5053790;28;20511;-73
2021/03/23 04:57:42;;;;;;;5.78;3.08;;;6.90;61.80;;;;;;5053973;28;20385;-73
2021/03/23 05:00:11;;;;;;;7.68;3.17;;;7.30;60.20;;;;;;5052222;28;20029;-73
2021/03/23 05:02:37;;;;;;;9.95;3.10;;;7.50;58.40;;;;;;5046045;28;20025;-73
2021/03/23 05:05:07;;;;;;;8.50;3.15;;;7.90;57.60;;;;;;5053661;28;20372;-72
2021/03/23 05:07:33;;;;;;;7.07;3.25;;;8.20;57.20;;;;;;5052296;28;20045;-73
2021/03/23 05:09:59;;;;;;;5.95;2.40;;;8.60;55.60;;;;;;5053735;28;20429;-73
2021/03/23 05:12:24;;;;;;;11.10;3.20;;;8.70;53.80;;;;;;5055414;28;20025;-73
2021/03/23 05:14:50;;;;;;;7.55;2.90;;;8.80;54.10;;;;;;5053740;28;20033;-73
2021/03/23 05:17:16;;;;;;;5.57;2.90;;;9.10;52.80;;;;;;5042105;28;20037;-74
2021/03/23 05:19:42;;;;;;;10.23;4.32;;;9.30;52.30;;;;;;5042973;28;20033;-73
2021/03/23 05:22:07;;;;;;;6.60;2.85;;;9.60;51.60;;;;;;5052441;28;20513;-74
2021/03/23 05:24:33;;;;;;;7.80;3.70;;;9.90;50.90;;;;;;5052254;28;20055;-74
2021/03/23 05:26:59;;;;;;;8.48;4.28;;;10.20;50.30;;;;;;5045421;28;20049;-73
2021/03/23 05:29:25;;;;;;;10.07;4.25;;;10.50;49.50;;;;;;5047915;28;20101;-74
2021/03/23 05:31:50;;;;;;;7.82;3.78;;;10.50;48.60;;;;;;5036157;28;20041;-73
2021/03/23 05:34:16;;;;;;;5.28;2.70;;;10.60;48.00;;;;;;5048271;28;20026;-73
2021/03/23 05:36:44;;;;;;;7.93;2.45;;;10.50;47.10;;;;;;5047684;28;20036;-73
2021/03/23 05:39:10;;;;;;;5.90;2.40;;;10.60;46.90;;;;;;5038174;28;20104;-73
2021/03/23 05:42:04;;;;;;;4.68;2.22;;;10.70;46.60;;;;;;5036521;28;20438;-74
2021/03/23 05:44:45;;;;;;;4.85;2.30;;;10.90;45.80;;;;;;5036478;28;20116;-73
2021/03/23 05:47:17;;;;;;;5.13;2.22;;;11.10;45.70;;;;;;5037958;28;20025;-73
2021/03/23 05:49:59;;;;;;;6.95;2.50;;;11.30;44.80;;;;;;5036294;28;20060;-73
2021/03/23 05:52:33;;;;;;;8.10;2.70;;;11.30;44.30;;;;;;5041872;28;20037;-73
2021/03/23 05:55:23;;;;;;;4.68;2.63;;;11.50;44.50;;;;;;5037621;28;20033;-70
2021/03/23 05:57:52;;;;;;;4.88;2.47;;;12.10;44.50;;;;;;5034508;28;20017;-76
2021/03/23 06:00:25;;;;;;;7.60;2.80;;;12.50;43.20;;;;;;5044795;28;20025;-76
2021/03/23 06:03:26;;;;;;;4.88;2.40;;;12.80;42.40;;;;;;5038528;28;20383;-74
2021/03/23 06:06:10;;;;;;;7.22;2.65;;;13.00;41.90;;;;;;5053078;28;20175;-74
2021/03/23 06:08:37;;;;;;;5.43;2.25;;;13.20;41.20;;;;;;5052353;28;20055;-74
2021/03/23 06:11:06;;;;;;;4.60;2.20;;;13.60;41.20;;;;;;5049279;28;20033;-73
2021/03/23 06:13:52;;;;;;;5.03;2.30;;;13.70;40.00;;;;;;5050322;28;20032;-73
2021/03/23 06:16:32;;;;;;;;;;;13.60;39.40;;;;;;5044169;28;20053;-73
2021/03/23 06:19:21;;;;;;;5.78;2.53;;;13.80;41.20;;;;;;5039115;28;19912;-74
2021/03/23 06:22:00;;;;;;;4.45;1.98;;;13.80;39.60;;;;;;5049788;28;20484;-74
2021/03/23 06:24:55;;;;;;;5.55;2.28;;;14.00;39.00;;;;;;5043444;28;20025;-74
2021/03/23 06:27:38;;;;;;;5.65;2.92;;;14.10;38.70;;;;;;5032078;28;20037;-73
2021/03/23 06:30:32;;;;;;;3.83;2.03;;;14.20;38.10;;;;;;5043572;28;20032;-72
2021/03/23 06:32:57;;;;;;;5.20;2.00;;;14.40;37.70;;;;;;5032505;28;20383;-73
2021/03/23 06:35:29;;;;;;;6.60;2.55;;;14.40;37.40;;;;;;5045790;28;20044;-71
2021/03/23 06:37:58;;;;;;;4.97;2.08;;;14.10;36.70;;;;;;5038340;28;20079;-72
2021/03/23 06:40:30;;;;;;;5.45;2.20;;;14.00;37.10;;;;;;5035051;28;20022;-75
2021/03/23 06:43:13;;;;;;;6.25;2.35;;;14.30;37.10;;;;;;5039760;28;20029;-73
2021/03/23 06:45:39;;;;;;;5.30;2.30;;;14.50;36.70;;;;;;5045864;28;20021;-74
2021/03/23 06:48:37;;;;;;;6.15;2.25;;;14.90;36.80;;;;;;5037785;28;20502;-74
2021/03/23 06:51:13;;;;;;;4.80;2.25;;;14.90;36.60;;;;;;5035606;28;20040;-74
2021/03/23 06:53:39;;;;;;;6.75;2.55;;;15.10;36.10;;;;;;5037650;28;20325;-74
2021/03/23 06:56:19;;;;;;;6.15;2.55;;;15.50;36.00;;;;;;5038729;28;20053;-74
2021/03/23 06:58:46;;;;;;;4.80;2.60;;;15.50;35.20;;;;;;5040234;28;20029;-73
2021/03/23 07:01:21;;;;;;;4.55;2.20;;;15.70;35.30;;;;;;5049383;28;20021;-75
2021/03/23 07:03:50;;;;;;;4.70;2.30;;;15.80;34.60;;;;;;5051464;28;20537;-73
2021/03/23 07:06:23;;;;;;;8.43;2.40;;;15.70;35.00;;;;;;5048457;28;20059;-74
2021/03/23 07:09:08;;;;;;;7.50;2.10;;;15.60;33.80;;;;;;5051054;28;20056;-73
2021/03/23 07:11:51;;;;;;;5.18;2.60;;;15.40;33.80;;;;;;5040422;28;20079;-71
2021/03/23 07:14:36;;;;;;;4.00;2.45;;;15.50;33.80;;;;;;5037411;28;20037;-69
2021/03/23 07:17:02;;;;;;;5.20;2.15;;;15.80;34.10;;;;;;5034665;28;20078;-71
2021/03/23 07:19:28;;;;;;;6.25;2.40;;;16.20;33.90;;;;;;5031813;28;20038;-69
2021/03/23 07:22:03;;;;;;;4.90;2.03;;;16.40;33.30;;;;;;5035782;28;20117;-70
2021/03/23 07:24:32;;;;;;;6.93;2.10;;;16.60;32.90;;;;;;5042416;28;20384;-72
2021/03/23 07:27:07;;;;;;;3.67;1.80;;;16.80;32.60;;;;;;5048778;28;21253;-71
2021/03/23 07:29:37;;;;;;;3.92;2.00;;;17.00;32.10;;;;;;5049635;28;20044;-70
2021/03/23 07:32:20;;;;;;;6.70;1.90;;;16.90;31.50;;;;;;5045438;28;20033;-69
2021/03/23 07:34:52;;;;;;;4.22;1.70;;;16.70;31.30;;;;;;5044107;28;20040;-73
2021/03/23 07:37:43;;;;;;;5.30;2.00;;;16.70;31.60;;;;;;5049810;28;20021;-69
2021/03/23 07:40:27;;;;;;;4.07;2.25;;;16.60;31.50;;;;;;5046959;28;20033;-73
2021/03/23 07:43:18;;;;;;;3.85;1.63;;;16.70;31.30;;;;;;5043203;28;20072;-67
2021/03/23 07:46:03;;;;;;;4.80;1.75;;;16.90;30.70;;;;;;5035704;28;20115;-65
2021/03/23 07:48:51;;;;;;;4.97;1.65;;;17.00;30.60;;;;;;5036066;28;20026;-63
2021/03/23 07:51:43;;;;;;;4.82;1.80;;;17.10;30.50;;;;;;5040489;28;20479;-69
2021/03/23 07:54:42;;;;;;;4.07;1.60;;;17.10;30.40;;;;;;5034294;28;20033;-70
2021/03/23 07:57:22;;;;;;;2.17;1.33;;;17.10;30.00;;;;;;5030412;28;20110;-69
2021/03/23 08:00:12;;;;;;;5.10;1.60;;;17.20;29.70;;;;;;5034714;28;20028;-71
2021/03/23 08:02:45;;;;;;;2.50;1.40;;;17.40;29.60;;;;;;5046215;28;20021;-72
2021/03/23 08:05:31;;;;;;;5.45;1.70;;;17.60;29.60;;;;;;5044202;28;20502;-73
2021/03/23 08:08:29;;;;;;;4.72;1.50;;;17.50;29.10;;;;;;5034061;28;20044;-68
2021/03/23 08:11:33;;;;;;;4.40;1.65;;;17.30;29.10;;;;;;5032742;28;20053;-68
2021/03/23 08:14:25;;;;;;;3.90;1.83;;;17.40;29.20;;;;;;5045340;28;20379;-70
2021/03/23 08:17:23;;;;;;;4.80;1.73;;;17.00;28.90;;;;;;5044904;28;20132;-72
2021/03/23 08:20:07;;;;;;;4.22;1.73;;;16.80;28.90;;;;;;5033851;28;20041;-73
2021/03/23 08:22:58;;;;;;;7.93;2.00;;;16.70;28.70;;;;;;5043102;28;20503;-70
2021/03/23 08:25:30;;;;;;;4.28;1.80;;;16.30;28.70;;;;;;5043120;28;20021;-71
2021/03/23 08:28:17;;;;;;;5.72;1.60;;;16.50;28.80;;;;;;5043454;28;20033;-69
2021/03/23 08:31:03;;;;;;;6.53;1.48;;;16.20;28.20;;;;;;5041087;28;20084;-76
2021/03/23 08:33:41;;;;;;;4.32;1.67;;;15.50;28.20;;;;;;5038168;28;20416;-69
2021/03/23 08:36:16;;;;;;;6.57;1.90;;;14.50;28.20;;;;;;5041163;28;20049;-72
2021/03/23 08:38:58;;;;;;;3.42;1.85;;;13.50;29.00;;;;;;5048871;28;20100;-73
2021/03/23 08:42:17;;;;;;;4.00;1.73;;;13.70;30.00;;;;;;5043494;28;20079;-73
2021/03/23 08:44:47;;;;;;;3.75;1.70;;;14.40;30.00;;;;;;5038493;28;20033;-74
2021/03/23 08:47:45;;;;;;;3.33;1.40;;;15.10;29.70;;;;;;5027732;28;20036;-76
2021/03/23 08:50:45;;;;;;;7.47;1.40;;;15.30;28.80;;;;;;5044278;28;20045;-72
2021/03/23 08:53:34;;;;;;;4.78;1.50;;;15.90;29.00;;;;;;5033911;28;20403;-73
2021/03/23 08:56:01;;;;;;;3.90;1.33;;;16.30;28.60;;;;;;5041255;28;20454;-71
2021/03/23 08:58:45;;;;;;;3.58;1.27;;;16.80;28.20;;;;;;5046184;28;20029;-73
2021/03/23 09:01:27;;;;;;;3.80;1.30;;;16.60;27.60;;;;;;5037583;28;20025;-75
2021/03/23 09:04:10;;;;;;;3.03;1.20;;;16.80;27.70;;;;;;5036683;28;20036;-74
2021/03/23 09:06:55;;;;;;;3.47;1.20;;;17.00;27.50;;;;;;5046719;28;20029;-71
2021/03/23 09:09:42;;;;;;;2.50;1.17;;;16.90;27.10;;;;;;5049964;28;20045;-68
2021/03/23 09:12:15;;;;;;;3.20;1.25;;;17.20;27.50;;;;;;5046772;28;20080;-68
2021/03/23 09:18:22;;;;;;;2.17;0.88;;;17.90;26.90;;;;;;5051720;28;20115;-75
2021/03/23 09:20:48;;;;;;;3.35;1.15;;;17.50;26.20;;;;;;5055317;28;20041;-76
2021/03/23 09:23:20;;;;;;;2.83;1.00;;;16.90;26.20;;;;;;5047054;28;20032;-81
2021/03/23 09:25:55;;;;;;;2.53;1.27;;;16.70;26.30;;;;;;5045517;28;20048;-82
2021/03/23 09:28:34;;;;;;;3.35;1.00;;;16.70;26.60;;;;;;5044169;28;20033;-81
2021/03/23 09:31:25;;;;;;;3.38;1.30;;;16.80;26.70;;;;;;5045584;28;20037;-70
2021/03/23 09:33:54;;;;;;;4.28;1.58;;;16.20;26.70;;;;;;5045734;28;20068;-69
2021/03/23 09:36:22;;;;;;;7.97;3.25;;;15.20;27.10;;;;;;5044335;28;20065;-69
2021/03/23 09:38:54;;;;;;;6.53;2.35;;;14.10;27.70;;;;;;5036943;28;20029;-79
2021/03/23 09:41:23;;;;;;;3.92;2.00;;;13.30;28.40;;;;;;5042428;28;20031;-72
2021/03/23 09:43:49;;;;;;;9.60;3.00;;;12.70;29.00;;;;;;5043916;28;20026;-70
2021/03/23 09:46:38;;;;;;;8.82;3.05;;;12.60;29.60;;;;;;5047688;28;20116;-71
2021/03/23 09:49:22;;;;;;;11.50;3.20;;;12.40;29.90;;;;;;5051926;28;20056;-70
2021/03/23 09:51:56;;;;;;;5.18;1.90;;;12.00;29.90;;;;;;5038162;28;20130;-71
2021/03/23 09:54:31;;;;;;;4.30;1.30;;;11.90;30.50;;;;;;5048131;28;20021;-70
2021/03/23 09:57:18;;;;;;;4.22;2.00;;;12.40;30.30;;;;;;5035291;28;20142;-69
2021/03/23 09:59:46;;;;;;;3.10;1.58;;;12.80;29.80;;;;;;5038703;28;20033;-72
2021/03/23 10:02:32;;;;;;;4.43;1.88;;;13.60;29.70;;;;;;5042115;28;20022;-70
2021/03/23 10:05:26;;;;;;;5.68;1.60;;;14.40;28.80;;;;;;5050513;28;20021;-71
2021/03/23 10:07:54;;;;;;;5.28;1.95;;;14.40;28.40;;;;;;5041191;28;20045;-72
2021/03/23 10:10:29;;;;;;;3.08;1.15;;;14.60;28.40;;;;;;5044121;28;20083;-70
2021/03/23 10:12:56;;;;;;;2.25;1.10;;;15.00;28.30;;;;;;5038975;28;20254;-72
2021/03/23 10:15:31;;;;;;;4.78;1.50;;;15.10;27.60;;;;;;5045962;28;20043;-71
2021/03/23 10:18:25;;;;;;;3.47;1.33;;;14.80;27.90;;;;;;5049121;28;20390;-71
2021/03/23 10:20:58;;;;;;;4.28;1.80;;;15.10;28.30;;;;;;5035527;28;20503;-69
2021/03/23 10:23:27;;;;;;;1.83;1.10;;;15.60;28.40;;;;;;5034934;28;20022;-69
2021/03/23 10:25:54;;;;;;;3.50;1.63;;;15.60;28.10;;;;;;5044778;28;20079;-69
2021/03/23 10:28:27;;;;;;;6.47;1.75;;;15.70;28.10;;;;;;5033164;28;20033;-74
2021/03/23 10:30:59;;;;;;;6.72;2.60;;;15.80;28.00;;;;;;5046376;28;20091;-73
2021/03/23 10:33:31;;;;;;;3.30;1.50;;;16.20;28.20;;;;;;5038218;28;20036;-71
2021/03/23 10:36:02;;;;;;;4.18;1.60;;;16.60;27.80;;;;;;5050386;28;20479;-74
2021/03/23 10:38:28;;;;;;;3.15;1.38;;;16.90;27.70;;;;;;5042083;28;20142;-72
2021/03/23 10:40:54;;;;;;;1.42;0.90;;;17.10;27.40;;;;;;5033902;28;20030;-73
2021/03/23 10:43:34;;;;;;;2.78;1.27;;;16.80;26.70;;;;;;5045323;28;20025;-71
2021/03/23 10:46:05;;;;;;;6.05;1.45;;;16.30;26.80;;;;;;5045783;28;20044;-71
2021/03/23 10:48:39;;;;;;;2.67;0.98;;;16.00;27.10;;;;;;5041831;28;20112;-70
2021/03/23 10:51:18;;;;;;;3.33;1.20;;;15.70;27.40;;;;;;5043478;28;20029;-70
2021/03/23 10:54:27;;;;;;;2.38;1.00;;;15.60;27.90;;;;;;5049177;28;20032;-69
2021/03/23 10:56:59;;;;;;;5.40;1.20;;;16.00;27.70;;;;;;5043839;28;20046;-70
2021/03/23 10:59:36;;;;;;;2.85;1.08;;;16.20;27.20;;;;;;5033804;28;20044;-74
2021/03/23 11:02:14;;;;;;;2.67;1.05;;;16.30;26.90;;;;;;5040491;28;20021;-70
2021/03/23 11:05:05;;;;;;;2.08;0.90;;;16.30;26.80;;;;;;5036893;28;20117;-71
2021/03/23 11:07:33;;;;;;;3.00;1.10;;;16.10;26.30;;;;;;5043279;28;20135;-69
2021/03/23 11:10:00;;;;;;;7.03;1.30;;;16.00;26.60;;;;;;5038524;28;20025;-70
2021/03/23 11:12:27;;;;;;;3.45;1.25;;;15.70;26.80;;;;;;5045225;28;20040;-70
2021/03/23 11:14:54;;;;;;;7.10;1.20;;;14.70;26.90;;;;;;5040476;28;20116;-74
2021/03/23 11:17:22;;;;;;;6.28;1.45;;;13.60;27.50;;;;;;5039528;28;20475;-74
2021/03/23 11:19:52;;;;;;;2.83;1.40;;;12.90;28.50;;;;;;5039264;28;20467;-74
2021/03/23 11:22:35;;;;;;;4.05;1.52;;;12.90;29.50;;;;;;5041199;28;20029;-74
2021/03/23 11:25:05;;;;;;;4.75;1.75;;;13.40;29.50;;;;;;5036984;28;20364;-74
2021/03/23 11:27:31;;;;;;;7.65;1.65;;;13.40;29.40;;;;;;5059572;28;20025;-75
2021/03/23 11:29:58;;;;;;;3.40;1.17;;;13.50;29.40;;;;;;5036794;28;20097;-74
2021/03/23 11:32:25;;;;;;;2.28;1.08;;;13.80;29.50;;;;;;5041727;28;20036;-74
2021/03/23 11:34:51;;;;;;;2.75;1.10;;;13.80;28.90;;;;;;5039021;28;20075;-74
2021/03/23 11:37:18;;;;;;;2.72;1.50;;;13.00;28.90;;;;;;5042509;28;20025;-75
2021/03/23 11:39:43;;;;;;;7.65;2.30;;;12.20;29.10;;;;;;5050875;28;20025;-75
2021/03/23 11:42:18;;;;;;;5.15;1.95;;;11.40;29.50;;;;;;5033572;28;20036;-74
2021/03/23 11:44:47;;;;;;;5.80;2.15;;;10.70;30.10;;;;;;5041115;28;20025;-75
2021/03/23 11:47:26;;;;;;;7.47;2.28;;;10.00;30.70;;;;;;5039091;28;20030;-76
2021/03/23 11:50:04;;;;;;;5.60;2.60;;;9.70;32.10;;;;;;5049890;28;20021;-76
2021/03/23 11:52:30;;;;;;;4.18;2.22;;;10.60;33.10;;;;;;5037228;28;20113;-75
2021/03/23 11:54:57;;;;;;;4.50;1.60;;;11.50;33.00;;;;;;5037137;28;20021;-74
2021/03/23 11:57:24;;;;;;;5.63;1.52;;;12.50;32.40;;;;;;5040430;28;20442;-75
2021/03/23 11:59:51;;;;;;;4.80;2.00;;;13.30;31.60;;;;;;5046438;28;20082;-75
2021/03/23 12:02:17;;;;;;;8.23;3.53;;;13.90;30.50;;;;;;5046285;28;20455;-76
2021/03/23 12:04:43;;;;;;;4.15;1.95;;;14.10;30.10;;;;;;5050636;28;20064;-75
2021/03/23 12:07:21;;;;;;;3.85;1.65;;;13.90;29.90;;;;;;5043018;28;20053;-75
2021/03/23 12:09:57;;;;;;;3.13;1.35;;;13.50;29.50;;;;;;5041083;28;20056;-71
2021/03/23 12:12:50;;;;;;;3.88;1.10;;;12.70;29.30;;;;;;5042452;28;20029;-71
2021/03/23 12:15:15;;;;;;;5.43;1.58;;;12.10;29.50;;;;;;5044672;28;20056;-71
2021/03/23 12:17:47;;;;;;;2.45;1.42;;;11.70;30.00;;;;;;5049427;28;20022;-71
2021/03/23 12:20:21;;;;;;;7.47;1.52;;;11.40;30.60;;;;;;5041456;28;20092;-70
2021/03/23 12:22:49;;;;;;;9.13;1.50;;;11.10;31.50;;;;;;5048735;28;20395;-70
2021/03/23 12:25:16;;;;;;;5.55;1.80;;;10.80;32.40;;;;;;5044946;28;20073;-70
2021/03/23 12:27:42;;;;;;;6.07;1.80;;;10.50;33.30;;;;;;5037589;28;20032;-70
2021/03/23 12:30:09;;;;;;;3.75;1.67;;;10.10;33.90;;;;;;5038535;28;20037;-70
2021/03/23 12:32:36;;;;;;;2.55;1.40;;;9.90;34.40;;;;;;5043331;28;20513;-70
2021/03/23 12:35:06;;;;;;;4.70;2.00;;;9.70;34.50;;;;;;5043727;28;20025;-70
2021/03/23 12:37:32;;;;;;;3.55;1.52;;;9.50;34.70;;;;;;5048597;28;20033;-70
2021/03/23 12:39:57;;;;;;;2.92;1.35;;;9.40;34.90;;;;;;5050651;28;20025;-69
2021/03/23 12:42:26;;;;;;;3.88;1.40;;;9.50;35.20;;;;;;5053255;28;20029;-69
2021/03/23 12:44:52;;;;;;;7.90;1.58;;;9.60;35.10;;;;;;5048259;28;20021;-69
2021/03/23 12:47:18;;;;;;;7.63;2.08;;;9.30;35.30;;;;;;5054879;28;20118;-69
2021/03/23 12:49:44;;;;;;;5.78;2.22;;;8.80;36.80;;;;;;5047381;28;20056;-70
2021/03/23 12:52:14;;;;;;;19.42;2.47;;;8.00;39.00;;;;;;5043731;28;20034;-68
2021/03/23 12:54:49;;;;;;;4.07;2.20;;;7.10;41.70;;;;;;5045651;28;20464;-68
2021/03/23 12:57:19;;;;;;;3.00;1.90;;;6.40;44.10;;;;;;5043560;28;20552;-69
2021/03/23 12:59:47;;;;;;;7.10;2.53;;;5.70;45.50;;;;;;5045153;28;20064;-69
2021/03/23 13:02:15;;;;;;;4.50;1.95;;;5.30;47.20;;;;;;5040827;28;20033;-68
2021/03/23 13:04:41;;;;;;;3.35;1.92;;;5.00;48.30;;;;;;5038400;28;20048;-68
2021/03/23 13:07:20;;;;;;;5.32;2.10;;;4.80;49.10;;;;;;5036447;28;20053;-68
2021/03/23 13:09:46;;;;;;;4.13;2.13;;;4.70;50.10;;;;;;5042928;28;20040;-70
2021/03/23 13:12:13;;;;;;;3.97;2.15;;;4.60;50.70;;;;;;5047491;28;20045;-69
2021/03/23 13:14:40;;;;;;;5.60;2.50;;;4.70;51.60;;;;;;5042084;28;20079;-69
2021/03/23 13:17:06;;;;;;;8.80;2.47;;;4.90;52.10;;;;;;5049380;28;20124;-70
2021/03/23 13:19:32;;;;;;;3.28;2.03;;;5.10;52.40;;;;;;5044793;28;20080;-70
2021/03/23 13:22:00;;;;;;;4.88;2.08;;;5.30;52.50;;;;;;5045652;28;20434;-71